createdAt,value
2019-04-14T00:01:26.187Z,17.87
2019-04-14T00:04:07.366Z,17.80
2019-04-14T00:06:41.881Z,17.48
2019-04-14T00:09:43.498Z,16.42
2019-04-14T00:15:25.683Z,17.75
2019-04-14T00:17:47.903Z,18.37
2019-04-14T00:20:31.987Z,20.15
2019-04-14T00:23:02.137Z,17.25
2019-04-14T00:25:57.216Z,18.65
2019-04-14T00:28:27.121Z,19.48
2019-04-14T00:30:56.325Z,19.30
2019-04-14T00:33:26.013Z,19.95
2019-04-14T00:36:11.374Z,19.48
2019-04-14T00:38:43.445Z,17.40
2019-04-14T00:41:37.299Z,19.10
2019-04-14T00:44:27.570Z,19.80
2019-04-14T00:47:05.008Z,19.95
2019-04-14T00:49:35.341Z,20.02
2019-04-14T00:52:05.722Z,18.85
2019-04-14T00:54:37.039Z,18.55
2019-04-14T00:57:09.395Z,20.32
2019-04-14T01:00:27.578Z,19.37
2019-04-14T01:02:12.393Z,20.02
2019-04-14T01:04:42.423Z,21.05
2019-04-14T01:07:12.972Z,19.30
2019-04-14T01:09:42.283Z,20.17
2019-04-14T01:12:11.366Z,19.30
2019-04-14T01:14:40.982Z,19.77
2019-04-14T01:17:11.186Z,20.05
2019-04-14T01:19:41.658Z,20.52
2019-04-14T01:24:58.165Z,20.20
2019-04-14T01:27:29.926Z,19.20
2019-04-14T01:30:09.384Z,18.00
2019-04-14T01:32:39.400Z,20.30
2019-04-14T01:35:09.638Z,18.82
2019-04-14T01:37:39.744Z,20.95
2019-04-14T01:40:09.974Z,18.50
2019-04-14T01:42:40.131Z,18.73
2019-04-14T01:45:12.190Z,18.02
2019-04-14T01:47:45.328Z,19.25
2019-04-14T01:50:21.267Z,17.95
2019-04-14T01:53:07.581Z,16.23
2019-04-14T01:55:59.250Z,17.35
2019-04-14T01:58:49.112Z,16.25
2019-04-14T02:01:23.853Z,17.80
2019-04-14T02:03:54.440Z,14.90
2019-04-14T02:06:31.828Z,17.92
2019-04-14T02:09:01.546Z,17.20
2019-04-14T02:11:33.428Z,17.00
2019-04-14T02:14:18.972Z,17.95
2019-04-14T02:16:52.596Z,18.25
2019-04-14T02:19:19.887Z,16.80
2019-04-14T02:21:49.905Z,17.23
2019-04-14T02:24:20.012Z,19.25
2019-04-14T02:26:50.278Z,16.20
2019-04-14T02:29:21.173Z,18.87
2019-04-14T02:32:17.535Z,19.60
2019-04-14T02:41:35.752Z,17.98
2019-04-14T02:44:04.601Z,17.82
2019-04-14T02:46:38.279Z,17.42
2019-04-14T02:51:35.924Z,19.60
2019-04-14T02:54:07.244Z,20.72
2019-04-14T02:56:35.795Z,16.95
2019-04-14T02:59:04.170Z,19.82
2019-04-14T03:01:38.944Z,17.23
2019-04-14T03:04:09.153Z,19.48
2019-04-14T03:06:33.577Z,20.10
2019-04-14T03:09:24.239Z,20.02
2019-04-14T03:14:15.213Z,17.35
2019-04-14T03:17:43.338Z,18.20
2019-04-14T03:20:24.437Z,18.57
2019-04-14T03:23:00.846Z,19.92
2019-04-14T03:25:27.757Z,18.98
2019-04-14T03:28:28.375Z,19.57
2019-04-14T03:38:54.840Z,20.20
2019-04-14T03:41:08.646Z,20.70
2019-04-14T03:43:43.008Z,21.00
2019-04-14T03:46:09.435Z,19.35
2019-04-14T03:51:08.501Z,18.32
2019-04-14T03:53:38.723Z,19.17
2019-04-14T03:56:20.092Z,19.75
2019-04-14T03:58:51.045Z,19.02
2019-04-14T04:01:21.514Z,20.35
2019-04-14T04:03:52.082Z,18.70
2019-04-14T04:06:22.457Z,19.05
2019-04-14T04:08:51.611Z,20.15
2019-04-14T04:11:21.498Z,18.80
2019-04-14T04:13:50.565Z,22.02
2019-04-14T04:16:24.880Z,19.30
2019-04-14T04:19:03.550Z,19.77
2019-04-14T04:21:50.946Z,20.57
2019-04-14T04:24:37.014Z,20.48
2019-04-14T04:27:24.389Z,19.55
2019-04-14T04:30:16.539Z,19.35
2019-04-14T04:33:04.432Z,21.17
2019-04-14T04:35:37.141Z,19.75
2019-04-14T04:38:31.636Z,21.35
2019-04-14T04:41:01.596Z,19.35
2019-04-14T04:43:31.880Z,19.40
2019-04-14T04:46:02.653Z,20.97
2019-04-14T04:48:32.884Z,21.50
2019-04-14T04:51:02.958Z,21.07
2019-04-14T04:53:33.052Z,21.15
2019-04-14T04:56:03.550Z,19.85
2019-04-14T04:58:32.880Z,19.42
2019-04-14T05:01:03.421Z,19.70
2019-04-14T05:03:33.947Z,19.92
2019-04-14T05:06:50.523Z,20.55
2019-04-14T05:09:30.232Z,20.37
2019-04-14T05:12:17.737Z,18.60
2019-04-14T05:14:56.899Z,19.90
2019-04-14T05:17:27.695Z,19.82
2019-04-14T05:19:58.297Z,20.27
2019-04-14T05:22:28.843Z,20.08
2019-04-14T05:24:59.472Z,18.85
2019-04-14T05:27:32.314Z,19.48
2019-04-14T05:30:02.582Z,18.37
2019-04-14T05:32:32.651Z,20.57
2019-04-14T05:35:03.126Z,18.87
2019-04-14T05:37:33.320Z,18.85
2019-04-14T05:40:03.693Z,19.23
2019-04-14T05:42:34.023Z,16.90
2019-04-14T05:45:04.382Z,19.73
2019-04-14T05:47:34.918Z,17.75
2019-04-14T05:50:05.174Z,18.02
2019-04-14T05:52:34.170Z,17.80
2019-04-14T05:55:04.423Z,18.95
2019-04-14T05:57:35.089Z,16.80
2019-04-14T06:00:06.198Z,18.50
2019-04-14T06:02:35.630Z,16.15
2019-04-14T06:05:06.465Z,18.02
2019-04-14T06:07:35.902Z,17.10
2019-04-14T06:10:06.058Z,18.12
2019-04-14T06:12:35.165Z,17.90
2019-04-14T06:15:04.872Z,19.65
2019-04-14T06:17:34.046Z,17.52
2019-04-14T06:20:03.171Z,17.60
2019-04-14T06:22:32.426Z,17.65
2019-04-14T06:25:01.632Z,17.82
2019-04-14T06:27:30.911Z,16.40
2019-04-14T06:30:06.346Z,17.32
2019-04-14T06:32:41.256Z,15.83
2019-04-14T06:35:32.508Z,15.43
2019-04-14T06:38:05.820Z,15.40
2019-04-14T06:40:42.456Z,16.77
2019-04-14T06:43:11.772Z,16.05
2019-04-14T06:45:41.122Z,15.98
2019-04-14T06:48:10.093Z,17.67
2019-04-14T06:50:39.512Z,16.12
2019-04-14T06:53:08.850Z,16.10
2019-04-14T06:55:38.121Z,15.75
2019-04-14T06:58:07.241Z,17.20
2019-04-14T07:00:36.334Z,16.65
2019-04-14T07:03:05.579Z,15.72
2019-04-14T07:05:34.771Z,16.00
2019-04-14T07:08:04.038Z,15.85
2019-04-14T07:10:33.248Z,16.35
2019-04-14T07:13:02.541Z,16.57
2019-04-14T07:15:31.798Z,16.05
2019-04-14T07:18:00.936Z,15.15
2019-04-14T07:20:29.986Z,13.38
2019-04-14T07:22:59.035Z,16.55
2019-04-14T07:25:28.743Z,17.32
2019-04-14T07:27:58.417Z,16.48
2019-04-14T07:30:45.593Z,15.93
2019-04-14T07:33:29.790Z,15.68
2019-04-14T07:36:13.079Z,15.75
2019-04-14T07:38:48.760Z,16.05
2019-04-14T07:41:36.800Z,17.32
2019-04-14T07:44:11.842Z,18.00
2019-04-14T07:46:49.737Z,18.27
2019-04-14T07:49:40.948Z,17.98
2019-04-14T07:52:32.766Z,17.17
2019-04-14T07:55:26.664Z,16.70
2019-04-14T07:58:12.833Z,15.38
2019-04-14T08:00:49.219Z,16.62
2019-04-14T08:03:36.921Z,16.00
2019-04-14T08:06:05.987Z,15.40
2019-04-14T08:08:34.927Z,14.70
2019-04-14T08:11:04.496Z,15.05
2019-04-14T08:13:33.346Z,14.60
2019-04-14T08:16:02.513Z,14.70
2019-04-14T08:18:31.608Z,13.95
2019-04-14T08:21:00.695Z,14.13
2019-04-14T08:23:29.741Z,14.23
2019-04-14T08:25:58.836Z,12.82
2019-04-14T08:28:27.925Z,13.00
2019-04-14T08:30:56.910Z,12.73
2019-04-14T08:33:25.958Z,13.83
2019-04-14T08:35:55.037Z,15.03
2019-04-14T08:38:24.087Z,13.95
2019-04-14T08:40:53.363Z,13.32
2019-04-14T08:43:42.594Z,13.68
2019-04-14T08:46:42.638Z,12.85
2019-04-14T08:49:17.562Z,13.62
2019-04-14T08:52:11.436Z,13.15
2019-04-14T08:54:59.514Z,12.25
2019-04-14T08:57:46.432Z,12.55
2019-04-14T09:00:26.547Z,13.48
2019-04-14T09:03:22.945Z,14.73
2019-04-14T09:06:08.658Z,13.25
2019-04-14T09:09:01.264Z,12.20
2019-04-14T09:11:34.981Z,14.13
2019-04-14T09:14:04.018Z,14.38
2019-04-14T09:16:33.022Z,13.35
2019-04-14T09:19:07.862Z,12.93
2019-04-14T09:21:32.777Z,12.15
2019-04-14T09:24:01.881Z,12.13
2019-04-14T09:26:30.877Z,12.25
2019-04-14T09:28:59.853Z,12.35
2019-04-14T09:31:28.907Z,13.25
2019-04-14T09:33:57.879Z,12.73
2019-04-14T09:36:26.935Z,12.37
2019-04-14T09:38:55.818Z,12.93
2019-04-14T09:41:24.702Z,14.55
2019-04-14T09:43:53.721Z,10.32
2019-04-14T09:46:22.956Z,13.93
2019-04-14T09:48:51.973Z,13.35
2019-04-14T09:51:20.872Z,12.70
2019-04-14T09:53:49.796Z,12.93
2019-04-14T09:56:18.722Z,12.18
2019-04-14T09:58:47.919Z,11.68
2019-04-14T10:01:16.871Z,13.22
2019-04-14T10:03:45.879Z,12.95
2019-04-14T10:06:15.078Z,13.20
2019-04-14T10:08:44.088Z,10.90
2019-04-14T10:11:13.137Z,11.80
2019-04-14T10:13:42.010Z,12.13
2019-04-14T10:16:11.403Z,12.10
2019-04-14T10:18:40.392Z,12.55
2019-04-14T10:21:17.232Z,12.07
2019-04-14T10:23:40.162Z,11.88
2019-04-14T10:26:09.185Z,11.90
2019-04-14T10:28:38.145Z,11.85
2019-04-14T10:31:07.231Z,11.05
2019-04-14T10:33:36.266Z,11.40
2019-04-14T10:36:05.301Z,12.37
2019-04-14T10:38:34.174Z,12.33
2019-04-14T10:41:03.046Z,10.70
2019-04-14T10:43:31.954Z,10.57
2019-04-14T10:46:01.001Z,10.20
2019-04-14T10:48:29.862Z,11.35
2019-04-14T10:50:58.772Z,10.60
2019-04-14T10:53:27.748Z,10.98
2019-04-14T10:55:56.639Z,10.60
2019-04-14T10:58:25.623Z,11.20
2019-04-14T11:00:55.053Z,10.78
2019-04-14T11:03:23.929Z,11.25
2019-04-14T11:06:17.930Z,11.70
2019-04-14T11:08:46.899Z,9.55
2019-04-14T11:11:15.952Z,10.70
2019-04-14T11:13:44.938Z,10.77
2019-04-14T11:16:13.955Z,9.10
2019-04-14T11:18:43.048Z,10.18
2019-04-14T11:21:12.291Z,10.38
2019-04-14T11:23:41.281Z,10.63
2019-04-14T11:26:10.668Z,10.20
2019-04-14T11:28:39.553Z,12.20
2019-04-14T11:31:09.163Z,11.00
2019-04-14T11:33:55.914Z,11.60
2019-04-14T11:36:39.604Z,10.63
2019-04-14T11:39:13.683Z,8.10
2019-04-14T11:41:42.621Z,10.97
2019-04-14T11:44:11.582Z,10.87
2019-04-14T11:46:40.654Z,11.37
2019-04-14T11:49:09.598Z,10.53
2019-04-14T11:51:38.773Z,11.53
2019-04-14T11:54:07.755Z,12.60
2019-04-14T11:56:36.740Z,12.97
2019-04-14T11:59:05.865Z,10.83
2019-04-14T12:02:12.349Z,11.73
2019-04-14T12:05:06.613Z,12.03
2019-04-14T12:07:58.365Z,10.90
2019-04-14T12:10:29.744Z,11.30
2019-04-14T12:12:58.615Z,12.67
2019-04-14T12:15:27.667Z,12.67
2019-04-14T12:17:57.087Z,13.03
2019-04-14T12:20:26.013Z,13.43
2019-04-14T12:22:55.108Z,12.10
2019-04-14T12:25:24.123Z,11.53
2019-04-14T12:27:53.560Z,12.03
2019-04-14T12:30:24.379Z,13.70
2019-04-14T12:32:53.519Z,13.47
2019-04-14T12:35:22.546Z,13.30
2019-04-14T12:37:51.484Z,11.10
2019-04-14T12:40:21.376Z,13.70
2019-04-14T12:43:00.915Z,11.70
2019-04-14T12:45:50.103Z,12.87
2019-04-14T12:48:36.784Z,12.33
2019-04-14T12:51:13.569Z,12.50
2019-04-14T12:53:42.592Z,13.55
2019-04-14T12:56:13.235Z,13.10
2019-04-14T12:59:13.603Z,14.60
2019-04-14T13:01:49.891Z,13.50
2019-04-14T13:04:18.936Z,14.47
2019-04-14T13:06:47.874Z,13.63
2019-04-14T13:09:16.920Z,13.70
2019-04-14T13:11:45.934Z,14.03
2019-04-14T13:14:14.885Z,13.50
2019-04-14T13:16:43.812Z,12.70
2019-04-14T13:19:12.658Z,13.80
2019-04-14T13:21:41.887Z,13.77
2019-04-14T13:24:10.816Z,14.07
2019-04-14T13:26:39.840Z,13.13
2019-04-14T13:29:18.081Z,13.30
2019-04-14T13:31:47.447Z,13.20
2019-04-14T13:34:16.403Z,12.40
2019-04-14T13:36:45.414Z,12.93
2019-04-14T13:39:14.419Z,12.77
2019-04-14T13:41:43.861Z,13.63
2019-04-14T13:44:12.830Z,13.13
2019-04-14T13:46:41.967Z,12.17
2019-04-14T13:49:11.155Z,12.20
2019-04-14T13:51:40.173Z,12.13
2019-04-14T13:54:09.266Z,13.50
2019-04-14T13:56:38.224Z,13.30
2019-04-14T13:59:07.294Z,13.50
2019-04-14T14:01:48.534Z,12.83
2019-04-14T14:04:17.586Z,12.80
2019-04-14T14:06:46.678Z,12.17
2019-04-14T14:09:15.700Z,13.00
2019-04-14T14:11:54.320Z,14.50
2019-04-14T14:14:34.485Z,13.13
2019-04-14T14:17:13.831Z,12.53
2019-04-14T14:19:54.312Z,11.47
2019-04-14T14:22:59.510Z,15.60
2019-04-14T14:25:30.040Z,11.97
2019-04-14T14:27:59.118Z,12.90
2019-04-14T14:30:28.162Z,13.23
2019-04-14T14:32:57.075Z,15.53
2019-04-14T14:35:25.989Z,11.73
2019-04-14T14:37:54.819Z,12.57
2019-04-14T14:40:23.914Z,13.13
2019-04-14T14:42:52.916Z,11.68
2019-04-14T14:45:40.288Z,11.83
2019-04-14T14:48:20.160Z,11.48
2019-04-14T14:51:00.184Z,10.98
2019-04-14T14:53:29.068Z,11.63
2019-04-14T14:55:58.078Z,12.35
2019-04-14T14:58:27.119Z,11.90
2019-04-14T15:00:56.259Z,10.68
2019-04-14T15:03:25.242Z,10.95
2019-04-14T15:05:54.267Z,10.93
2019-04-14T15:08:23.528Z,10.98
2019-04-14T15:10:52.397Z,10.53
2019-04-14T15:13:21.342Z,11.43
2019-04-14T15:15:50.550Z,12.47
2019-04-14T15:18:19.572Z,10.50
2019-04-14T15:20:48.460Z,11.63
2019-04-14T15:23:24.790Z,10.87
2019-04-14T15:25:48.243Z,13.83
2019-04-14T15:28:17.137Z,11.63
2019-04-14T15:30:46.159Z,13.83
2019-04-14T15:33:16.173Z,12.07
2019-04-14T15:35:45.117Z,13.25
2019-04-14T15:38:14.518Z,12.28
2019-04-14T15:40:43.480Z,11.38
2019-04-14T15:43:12.546Z,11.57
2019-04-14T15:45:41.414Z,12.80
2019-04-14T15:48:10.536Z,12.45
2019-04-14T15:50:39.581Z,11.57
2019-04-14T15:53:08.507Z,10.90
2019-04-14T15:55:37.947Z,13.58
2019-04-14T15:58:16.421Z,11.38
2019-04-14T16:01:03.508Z,11.90
2019-04-14T16:03:39.936Z,11.50
2019-04-14T16:06:27.344Z,11.60
2019-04-14T16:09:18.290Z,11.20
2019-04-14T16:12:09.439Z,12.43
2019-04-14T16:15:03.657Z,10.75
2019-04-14T16:17:43.219Z,10.95
2019-04-14T16:20:15.819Z,10.53
2019-04-14T16:22:44.672Z,11.90
2019-04-14T16:25:14.089Z,11.43
2019-04-14T16:28:05.995Z,10.63
2019-04-14T16:30:52.860Z,11.75
2019-04-14T16:33:53.333Z,12.63
2019-04-14T16:36:22.383Z,12.88
2019-04-14T16:38:51.414Z,11.65
2019-04-14T16:41:20.379Z,11.00
2019-04-14T16:43:49.486Z,13.18
2019-04-14T16:46:18.551Z,11.80
2019-04-14T16:48:47.953Z,11.48
2019-04-14T16:51:22.862Z,10.32
2019-04-14T16:54:02.688Z,13.38
2019-04-14T16:56:50.805Z,11.10
2019-04-14T16:59:19.731Z,9.28
2019-04-14T17:01:49.502Z,11.22
2019-04-14T17:04:18.462Z,10.88
2019-04-14T17:06:47.334Z,9.95
2019-04-14T17:09:16.309Z,11.12
2019-04-14T17:11:45.306Z,11.30
2019-04-14T17:14:17.993Z,9.75
2019-04-14T17:16:58.332Z,10.30
2019-04-14T17:19:32.832Z,10.90
2019-04-14T17:22:20.783Z,10.00
2019-04-14T17:24:57.647Z,10.00
2019-04-14T17:27:40.135Z,9.63
2019-04-14T17:30:43.628Z,11.68
2019-04-14T17:33:22.128Z,9.98
2019-04-14T17:36:25.327Z,10.40
2019-04-14T17:39:12.083Z,10.30
2019-04-14T17:41:51.870Z,11.22
2019-04-14T17:44:45.953Z,11.38
2019-04-14T17:47:34.018Z,11.18
2019-04-14T17:50:10.995Z,12.90
2019-04-14T17:52:42.643Z,11.12
2019-04-14T17:55:31.566Z,11.40
2019-04-14T17:58:04.225Z,10.15
2019-04-14T18:00:50.882Z,11.85
2019-04-14T18:03:42.093Z,11.43
2019-04-14T18:06:18.798Z,10.98
2019-04-14T18:09:05.717Z,12.15
2019-04-14T18:11:48.556Z,10.80
2019-04-14T18:14:35.744Z,11.33
2019-04-14T18:17:09.026Z,11.60
2019-04-14T18:19:57.540Z,11.18
2019-04-14T18:22:27.250Z,10.23
2019-04-14T18:24:56.732Z,14.90
2019-04-14T18:27:26.669Z,11.38
2019-04-14T18:30:15.000Z,12.82
2019-04-14T18:33:18.809Z,10.88
2019-04-14T18:36:01.722Z,10.55
2019-04-14T18:38:38.997Z,11.05
2019-04-14T18:41:26.012Z,13.03
2019-04-14T18:44:21.146Z,14.65
2019-04-14T18:47:12.367Z,11.05
2019-04-14T18:50:03.458Z,11.70
2019-04-14T18:52:47.474Z,13.05
2019-04-14T18:55:39.135Z,13.20
2019-04-14T18:58:28.105Z,11.00
2019-04-14T19:01:07.051Z,10.00
2019-04-14T19:03:36.157Z,10.63
2019-04-14T19:06:05.291Z,10.30
2019-04-14T19:08:34.374Z,9.68
2019-04-14T19:11:34.029Z,11.22
2019-04-14T19:14:04.344Z,12.33
2019-04-14T19:16:40.002Z,10.98
2019-04-14T19:19:09.651Z,9.38
2019-04-14T19:21:39.216Z,8.40
2019-04-14T19:24:08.814Z,9.88
2019-04-14T19:26:41.158Z,9.48
2019-04-14T19:29:32.671Z,7.15
2019-04-14T19:32:01.702Z,9.35
2019-04-14T19:34:30.687Z,9.18
2019-04-14T19:36:59.807Z,7.35
2019-04-14T19:39:28.937Z,7.55
2019-04-14T19:41:58.229Z,9.68
2019-04-14T19:44:27.328Z,6.20
2019-04-14T19:46:57.011Z,8.10
2019-04-14T19:49:26.085Z,8.68
2019-04-14T19:51:55.395Z,24.32
2019-04-14T19:54:24.414Z,9.18
2019-04-14T19:56:53.634Z,9.30
2019-04-14T19:59:22.683Z,6.67
2019-04-14T20:01:51.768Z,5.75
2019-04-14T20:04:20.690Z,7.90
2019-04-14T20:07:00.585Z,11.53
2019-04-14T20:09:30.922Z,7.17
2019-04-14T20:12:00.963Z,7.92
2019-04-14T20:14:30.807Z,9.40
2019-04-14T20:17:09.395Z,8.90
2019-04-14T20:19:52.952Z,6.60
2019-04-14T20:22:37.667Z,7.42
2019-04-14T20:25:18.060Z,5.85
2019-04-14T20:28:06.514Z,10.40
2019-04-14T20:30:48.454Z,8.13
2019-04-14T20:33:17.893Z,6.90
2019-04-14T20:35:47.548Z,10.28
2019-04-14T20:38:16.819Z,7.65
2019-04-14T20:40:45.938Z,6.65
2019-04-14T20:43:15.045Z,8.70
2019-04-14T20:45:44.347Z,8.30
2019-04-14T20:48:14.125Z,8.60
2019-04-14T20:50:43.422Z,10.50
2019-04-14T20:53:12.616Z,9.70
2019-04-14T20:55:47.150Z,6.60
2019-04-14T20:58:12.836Z,8.40
2019-04-14T21:00:42.210Z,7.67
2019-04-14T21:03:20.151Z,7.97
2019-04-14T21:06:11.741Z,7.30
2019-04-14T21:09:00.360Z,6.42
2019-04-14T21:11:38.024Z,8.40
2019-04-14T21:14:26.351Z,8.93
2019-04-14T21:17:03.848Z,7.95
2019-04-14T21:19:52.277Z,6.80
2019-04-14T21:22:41.491Z,7.15
2019-04-14T21:25:30.199Z,7.55
2019-04-14T21:28:17.510Z,8.28
2019-04-14T21:30:59.095Z,8.18
2019-04-14T21:33:47.428Z,7.35
2019-04-14T21:36:28.029Z,8.20
2019-04-14T21:39:10.794Z,7.58
2019-04-14T21:41:40.131Z,8.18
2019-04-14T21:44:09.127Z,8.00
2019-04-14T21:46:38.552Z,7.35
2019-04-14T21:49:07.911Z,6.90
2019-04-14T21:52:11.181Z,8.05
2019-04-14T21:54:42.124Z,6.28
2019-04-14T21:57:30.509Z,7.28
2019-04-14T22:00:10.695Z,8.25
2019-04-14T22:02:57.603Z,7.33
2019-04-14T22:05:35.614Z,8.28
2019-04-14T22:08:09.826Z,7.60
2019-04-14T22:10:56.327Z,7.50
2019-04-14T22:13:26.004Z,7.65
2019-04-14T22:15:55.722Z,8.05
2019-04-14T22:18:25.124Z,7.37
2019-04-14T22:20:54.398Z,7.62
2019-04-14T22:23:23.629Z,7.78
2019-04-14T22:25:56.027Z,7.55
2019-04-14T22:28:25.263Z,8.60
2019-04-14T22:30:54.336Z,9.28
2019-04-14T22:33:23.371Z,8.90
2019-04-14T22:35:52.471Z,9.05
2019-04-14T22:38:22.065Z,8.05
2019-04-14T22:40:51.245Z,8.15
2019-04-14T22:43:22.374Z,7.72
2019-04-14T22:45:51.443Z,9.83
2019-04-14T22:48:20.665Z,8.55
2019-04-14T22:50:52.882Z,9.55
2019-04-14T22:53:22.068Z,10.28
2019-04-14T22:55:51.323Z,9.25
2019-04-14T22:58:20.509Z,8.90
2019-04-14T23:00:53.757Z,8.33
2019-04-14T23:03:40.957Z,9.65
2019-04-14T23:06:38.427Z,9.80
2019-04-14T23:09:22.474Z,10.72
2019-04-14T23:12:03.444Z,10.78
2019-04-14T23:15:10.291Z,8.80
2019-04-14T23:18:04.285Z,9.58
2019-04-14T23:21:05.033Z,9.43
2019-04-14T23:23:50.026Z,10.80
2019-04-14T23:26:19.166Z,10.75
2019-04-14T23:28:48.384Z,10.30
2019-04-14T23:31:17.829Z,11.25
2019-04-14T23:33:47.238Z,11.08
2019-04-14T23:36:16.190Z,10.78
2019-04-14T23:38:45.260Z,10.15
2019-04-14T23:41:14.616Z,11.35
2019-04-14T23:43:45.346Z,11.00
2019-04-14T23:46:14.460Z,12.00
2019-04-14T23:48:43.679Z,10.20
2019-04-14T23:51:14.318Z,10.70
2019-04-14T23:53:43.919Z,12.33
2019-04-14T23:56:13.233Z,10.45
2019-04-14T23:58:42.427Z,9.85
